Burnet, Texas
Current Conditions -  °F | °C
As of 11:53 AM on Saturday 25 Oct 2014 (Local Time) from KBMQ Reporting Station
Clear Clear  
Wind Chill: 79°   Ceiling: Unl
Heat Index: 80°   Visibility: 10mi
Dew Point: 59°   Wind: 8mph
Humidity: 50%   Direction: 200°SSW
Pressure: 30.21"   Gusts: NA
Location:  30.76°N, 98.23°W
Report Text: KBMQ 251653Z AUTO 20007KT 10SM CLR 26/15 A3021 RMK AO2 SLP215 T02610150
Loading
Personal Weather Stations






























Interactive Weather Map
Tropical Storm Tracking
New forecast layout! Learn more

10-Day Weather Forecast

Advertisements
Track Severe Weather on mobile